UAE5RQ LIMC-OMDB
Flight info
| Callsign | UAE5RQ |
|---|---|
| Flight time | N/A |
| Altitude | 37000 |
| Route | ROBAS DCT LOGDI DCT EKDIR DCT AMTEL DCT SOR DCT POLIT DCT BELIX UM728 SALUN N705 MMA DCT DASUM DCT FYM M872 SILKA/N0494F390 M872 BDB Y214 RAPMA DCT KUVSO DCT KATIT DCT PEKEM M628 RIGIL G783 ELUDA/N0478F350 G783 ASPED Q308 KIPOK Q568 IMPED |
| Aircraft | A388/J-SADE2E3FGHIJ3J4J5M1RWXY/LB1D1 |
Departure
| Time | 2026-05-07 13:40 |
|---|---|
| Airport | Milan Malpensa International Airport (LIMC) |
Arrival
| Time | N/A |
|---|---|
| Airport | Dubai International Airport (OMDB) |
| Time | Latitude | Longitude | Altitude | Speed | Heading |
|---|---|---|---|---|---|
| 2026-05-07 13:11 | 45.63024 | 8.71601 | 741 ft | 0 kts | 350° |
| 2026-05-07 13:25 | 45.63021 | 8.71602 | 741 ft | 0 kts | 350° |
| 2026-05-07 13:26 | 45.62935 | 8.71538 | 741 ft | 0 kts | 79° |
| 2026-05-07 13:27 | 45.62936 | 8.71542 | 741 ft | 1 kts | 79° |
| 2026-05-07 13:27 | 45.62937 | 8.71550 | 741 ft | 1 kts | 79° |
| 2026-05-07 13:28 | 45.62938 | 8.71561 | 741 ft | 1 kts | 79° |
| 2026-05-07 13:28 | 45.62941 | 8.71580 | 741 ft | 3 kts | 79° |
| 2026-05-07 13:28 | 45.62941 | 8.71586 | 740 ft | 0 kts | 79° |
| 2026-05-07 13:30 | 45.62942 | 8.71594 | 740 ft | 3 kts | 79° |
| 2026-05-07 13:30 | 45.62949 | 8.71643 | 739 ft | 7 kts | 78° |
| 2026-05-07 13:30 | 45.62961 | 8.71729 | 739 ft | 10 kts | 78° |
| 2026-05-07 13:31 | 45.62977 | 8.71844 | 739 ft | 12 kts | 79° |
| 2026-05-07 13:31 | 45.62990 | 8.71937 | 740 ft | 11 kts | 79° |
| 2026-05-07 13:31 | 45.62980 | 8.72035 | 740 ft | 9 kts | 140° |
| 2026-05-07 13:31 | 45.62920 | 8.72068 | 740 ft | 10 kts | 170° |
| 2026-05-07 13:32 | 45.62842 | 8.72088 | 739 ft | 12 kts | 169° |
| 2026-05-07 13:32 | 45.62757 | 8.72112 | 739 ft | 13 kts | 168° |
| 2026-05-07 13:32 | 45.62664 | 8.72138 | 740 ft | 14 kts | 168° |
| 2026-05-07 13:32 | 45.62577 | 8.72162 | 740 ft | 15 kts | 170° |
| 2026-05-07 13:33 | 45.62512 | 8.72178 | 739 ft | 15 kts | 169° |
| 2026-05-07 13:33 | 45.62459 | 8.72193 | 739 ft | 15 kts | 169° |
| 2026-05-07 13:33 | 45.62353 | 8.72223 | 739 ft | 16 kts | 169° |
| 2026-05-07 13:33 | 45.62244 | 8.72254 | 739 ft | 16 kts | 169° |
| 2026-05-07 13:34 | 45.62134 | 8.72285 | 740 ft | 16 kts | 169° |
| 2026-05-07 13:34 | 45.61893 | 8.72353 | 742 ft | 22 kts | 169° |
| 2026-05-07 13:34 | 45.61745 | 8.72391 | 741 ft | 21 kts | 170° |
| 2026-05-07 13:35 | 45.61606 | 8.72428 | 739 ft | 20 kts | 169° |
| 2026-05-07 13:35 | 45.61469 | 8.72467 | 740 ft | 20 kts | 168° |
| 2026-05-07 13:35 | 45.61336 | 8.72504 | 740 ft | 19 kts | 169° |
| 2026-05-07 13:35 | 45.61207 | 8.72540 | 742 ft | 19 kts | 169° |
| 2026-05-07 13:36 | 45.61092 | 8.72594 | 738 ft | 15 kts | 126° |
| 2026-05-07 13:36 | 45.61083 | 8.72726 | 742 ft | 13 kts | 79° |
| 2026-05-07 13:36 | 45.61100 | 8.72858 | 742 ft | 15 kts | 79° |
| 2026-05-07 13:36 | 45.61126 | 8.73016 | 742 ft | 18 kts | 66° |
| 2026-05-07 13:37 | 45.61212 | 8.73135 | 740 ft | 18 kts | 30° |
| 2026-05-07 13:37 | 45.61328 | 8.73235 | 739 ft | 20 kts | 32° |
| 2026-05-07 13:37 | 45.61460 | 8.73253 | 741 ft | 20 kts | 348° |
| 2026-05-07 13:37 | 45.61576 | 8.73221 | 740 ft | 10 kts | 7° |
| 2026-05-07 13:38 | 45.61621 | 8.73280 | 740 ft | 10 kts | 74° |
| 2026-05-07 13:38 | 45.61632 | 8.73387 | 739 ft | 12 kts | 96° |
| 2026-05-07 13:38 | 45.61604 | 8.73507 | 738 ft | 14 kts | 115° |
| 2026-05-07 13:38 | 45.61586 | 8.73639 | 742 ft | 14 kts | 84° |
| 2026-05-07 13:39 | 45.61637 | 8.73727 | 740 ft | 12 kts | 4° |
| 2026-05-07 13:39 | 45.61774 | 8.73698 | 742 ft | 44 kts | 350° |
| 2026-05-07 13:39 | 45.62333 | 8.73539 | 743 ft | 116 kts | 349° |
| 2026-05-07 13:39 | 45.63313 | 8.73273 | 740 ft | 165 kts | 348° |
| 2026-05-07 13:40 | 45.64547 | 8.72928 | 882 ft | 184 kts | 348° |
| 2026-05-07 13:40 | 45.65781 | 8.72632 | 1486 ft | 178 kts | 353° |
| 2026-05-07 13:40 | 45.67003 | 8.72548 | 2013 ft | 177 kts | 0° |
| 2026-05-07 13:40 | 45.68226 | 8.72579 | 2452 ft | 181 kts | 2° |
| 2026-05-07 13:41 | 45.69520 | 8.72633 | 2733 ft | 192 kts | 1° |
| 2026-05-07 13:41 | 45.70891 | 8.72679 | 2980 ft | 203 kts | 1° |
| 2026-05-07 13:41 | 45.72360 | 8.72781 | 3187 ft | 225 kts | 11° |
| 2026-05-07 13:41 | 45.73822 | 8.73736 | 3615 ft | 241 kts | 41° |
| 2026-05-07 13:42 | 45.74772 | 8.75702 | 4389 ft | 241 kts | 71° |
| 2026-05-07 13:42 | 45.75083 | 8.78123 | 5255 ft | 241 kts | 86° |
| 2026-05-07 13:42 | 45.74922 | 8.80478 | 6079 ft | 241 kts | 107° |
| 2026-05-07 13:42 | 45.74212 | 8.82685 | 6784 ft | 245 kts | 120° |
| 2026-05-07 13:43 | 45.73331 | 8.84832 | 7345 ft | 257 kts | 122° |
| 2026-05-07 13:43 | 45.72349 | 8.86839 | 7954 ft | 263 kts | 129° |
| 2026-05-07 13:43 | 45.71255 | 8.88557 | 8572 ft | 268 kts | 136° |
| 2026-05-07 13:43 | 45.70017 | 8.90232 | 9239 ft | 272 kts | 133° |
| 2026-05-07 13:44 | 45.68870 | 8.92415 | 9991 ft | 275 kts | 123° |
| 2026-05-07 13:44 | 45.67902 | 8.94772 | 10758 ft | 276 kts | 120° |
| 2026-05-07 13:44 | 45.67011 | 8.96961 | 11403 ft | 279 kts | 122° |
| 2026-05-07 13:44 | 45.65930 | 8.99392 | 12080 ft | 283 kts | 125° |
| 2026-05-07 13:45 | 45.64861 | 9.01616 | 12726 ft | 286 kts | 127° |
| 2026-05-07 13:45 | 45.64023 | 9.03127 | 13150 ft | 288 kts | 133° |
| 2026-05-07 13:45 | 45.62638 | 9.05277 | 13419 ft | 307 kts | 134° |
| 2026-05-07 13:45 | 45.61145 | 9.07597 | 13584 ft | 326 kts | 134° |
| 2026-05-07 13:46 | 45.59574 | 9.10055 | 13768 ft | 343 kts | 134° |
| 2026-05-07 13:46 | 45.57921 | 9.12651 | 13922 ft | 360 kts | 134° |
| 2026-05-07 13:46 | 45.56236 | 9.15299 | 14259 ft | 369 kts | 134° |
| 2026-05-07 13:46 | 45.54428 | 9.18142 | 14831 ft | 372 kts | 134° |
| 2026-05-07 13:47 | 45.52674 | 9.20896 | 15363 ft | 376 kts | 134° |
| 2026-05-07 13:47 | 45.50906 | 9.23664 | 15898 ft | 379 kts | 134° |
| 2026-05-07 13:47 | 45.49114 | 9.26467 | 16420 ft | 383 kts | 134° |
| 2026-05-07 13:47 | 45.47336 | 9.29247 | 16932 ft | 387 kts | 134° |
| 2026-05-07 13:48 | 45.45514 | 9.32093 | 17443 ft | 390 kts | 134° |
| 2026-05-07 13:48 | 45.43676 | 9.34958 | 17951 ft | 393 kts | 134° |
| 2026-05-07 13:48 | 45.41813 | 9.37862 | 18434 ft | 397 kts | 134° |
| 2026-05-07 13:48 | 45.39933 | 9.40790 | 18876 ft | 399 kts | 134° |
| 2026-05-07 13:49 | 45.38061 | 9.43700 | 19332 ft | 402 kts | 134° |
| 2026-05-07 13:49 | 45.36164 | 9.46645 | 19746 ft | 405 kts | 135° |
| 2026-05-07 13:49 | 45.34303 | 9.49530 | 20162 ft | 408 kts | 135° |
| 2026-05-07 13:49 | 45.32287 | 9.52652 | 20603 ft | 410 kts | 135° |
| 2026-05-07 13:50 | 45.30354 | 9.55644 | 21019 ft | 413 kts | 135° |
| 2026-05-07 13:50 | 45.28429 | 9.58622 | 21433 ft | 416 kts | 135° |
| 2026-05-07 13:50 | 45.26472 | 9.61646 | 21872 ft | 418 kts | 135° |
| 2026-05-07 13:50 | 45.24502 | 9.64685 | 22258 ft | 421 kts | 135° |
| 2026-05-07 13:51 | 45.22534 | 9.67720 | 22629 ft | 424 kts | 135° |
| 2026-05-07 13:51 | 45.20454 | 9.70899 | 23033 ft | 426 kts | 137° |
| 2026-05-07 13:51 | 45.18213 | 9.73740 | 23440 ft | 425 kts | 146° |
| 2026-05-07 13:51 | 45.15798 | 9.76151 | 23790 ft | 427 kts | 149° |
| 2026-05-07 13:52 | 45.13392 | 9.78495 | 24091 ft | 429 kts | 149° |
| 2026-05-07 13:52 | 45.10918 | 9.80925 | 24420 ft | 432 kts | 149° |
| 2026-05-07 13:52 | 45.08446 | 9.83358 | 24750 ft | 435 kts | 149° |
| 2026-05-07 13:52 | 45.05978 | 9.85787 | 25078 ft | 437 kts | 150° |
| 2026-05-07 13:53 | 45.03439 | 9.88281 | 25420 ft | 440 kts | 150° |
| 2026-05-07 13:53 | 45.00941 | 9.90733 | 25771 ft | 443 kts | 150° |
| 2026-05-07 13:53 | 44.98384 | 9.93238 | 26129 ft | 446 kts | 150° |
| 2026-05-07 13:53 | 44.95831 | 9.95737 | 26504 ft | 449 kts | 150° |
| 2026-05-07 13:54 | 44.93228 | 9.98281 | 26895 ft | 451 kts | 151° |
| 2026-05-07 13:54 | 44.90638 | 10.00811 | 27302 ft | 454 kts | 151° |
| 2026-05-07 13:54 | 44.88034 | 10.03350 | 27687 ft | 457 kts | 151° |
| 2026-05-07 13:54 | 44.85412 | 10.05904 | 28079 ft | 460 kts | 151° |
| 2026-05-07 13:55 | 44.82765 | 10.08480 | 28465 ft | 463 kts | 152° |
| 2026-05-07 13:55 | 44.80120 | 10.11051 | 28873 ft | 466 kts | 152° |
| 2026-05-07 13:55 | 44.77425 | 10.13668 | 29290 ft | 469 kts | 152° |
| 2026-05-07 13:55 | 44.74734 | 10.16278 | 29701 ft | 472 kts | 152° |
| 2026-05-07 13:56 | 44.72317 | 10.18620 | 30032 ft | 475 kts | 152° |
| 2026-05-07 13:56 | 44.69295 | 10.21565 | 30438 ft | 479 kts | 151° |
| 2026-05-07 13:56 | 44.66609 | 10.24299 | 30819 ft | 482 kts | 150° |
| 2026-05-07 13:56 | 44.63983 | 10.27011 | 31187 ft | 484 kts | 150° |
| 2026-05-07 13:57 | 44.61165 | 10.29914 | 31568 ft | 486 kts | 150° |
| 2026-05-07 13:57 | 44.58419 | 10.32725 | 31923 ft | 489 kts | 151° |
| 2026-05-07 13:57 | 44.55661 | 10.35534 | 32294 ft | 491 kts | 151° |
| 2026-05-07 13:57 | 44.52908 | 10.38330 | 32659 ft | 493 kts | 151° |
| 2026-05-07 13:58 | 44.50118 | 10.41158 | 33031 ft | 495 kts | 151° |
| 2026-05-07 13:58 | 44.47326 | 10.43981 | 33390 ft | 497 kts | 151° |
| 2026-05-07 13:58 | 44.44497 | 10.46840 | 33764 ft | 500 kts | 151° |
| 2026-05-07 13:58 | 44.41636 | 10.49729 | 34108 ft | 502 kts | 151° |
| 2026-05-07 13:59 | 44.38852 | 10.52537 | 34411 ft | 504 kts | 151° |
| 2026-05-07 13:59 | 44.35995 | 10.55416 | 34787 ft | 504 kts | 150° |
| 2026-05-07 13:59 | 44.33169 | 10.58261 | 35203 ft | 503 kts | 150° |
| 2026-05-07 13:59 | 44.30329 | 10.61116 | 35641 ft | 502 kts | 150° |
| 2026-05-07 14:00 | 44.27514 | 10.63943 | 36094 ft | 500 kts | 150° |
| 2026-05-07 14:00 | 44.24658 | 10.66806 | 36540 ft | 499 kts | 150° |
| 2026-05-07 14:00 | 44.21878 | 10.69590 | 36891 ft | 499 kts | 150° |
| 2026-05-07 14:01 | 44.16981 | 10.74364 | 36973 ft | 497 kts | 152° |
| 2026-05-07 14:01 | 44.10229 | 10.80549 | 36985 ft | 498 kts | 152° |
| 2026-05-07 14:02 | 44.05378 | 10.85013 | 36982 ft | 498 kts | 152° |
| 2026-05-07 14:02 | 43.99723 | 10.90239 | 36987 ft | 497 kts | 152° |
| 2026-05-07 14:03 | 43.97479 | 10.92311 | 36990 ft | 498 kts | 152° |
| 2026-05-07 14:03 | 43.93486 | 10.95990 | 36996 ft | 499 kts | 152° |
| 2026-05-07 14:04 | 43.87714 | 11.01297 | 36998 ft | 499 kts | 152° |
| 2026-05-07 14:04 | 43.81892 | 11.06641 | 36999 ft | 500 kts | 152° |
| 2026-05-07 14:05 | 43.76096 | 11.11947 | 37002 ft | 500 kts | 152° |
| 2026-05-07 14:05 | 43.70411 | 11.17141 | 37019 ft | 499 kts | 152° |
| 2026-05-07 14:06 | 43.64481 | 11.22544 | 37014 ft | 499 kts | 152° |
| 2026-05-07 14:06 | 43.58690 | 11.27810 | 37012 ft | 498 kts | 153° |
| 2026-05-07 14:07 | 43.52894 | 11.33066 | 37003 ft | 498 kts | 153° |
| 2026-05-07 14:07 | 43.47089 | 11.38318 | 36997 ft | 498 kts | 153° |
| 2026-05-07 14:08 | 43.41284 | 11.43560 | 36993 ft | 498 kts | 153° |
| 2026-05-07 14:08 | 43.35593 | 11.48685 | 36992 ft | 499 kts | 153° |
| 2026-05-07 14:09 | 43.29771 | 11.53917 | 36990 ft | 499 kts | 153° |
| 2026-05-07 14:09 | 43.24060 | 11.59037 | 36989 ft | 499 kts | 153° |
| 2026-05-07 14:10 | 43.18323 | 11.64838 | 36987 ft | 504 kts | 148° |
| 2026-05-07 14:10 | 43.12837 | 11.70843 | 36990 ft | 505 kts | 148° |
| 2026-05-07 14:11 | 43.07322 | 11.76845 | 36992 ft | 505 kts | 148° |
| 2026-05-07 14:11 | 43.01788 | 11.82843 | 36989 ft | 506 kts | 148° |
| 2026-05-07 14:12 | 42.96158 | 11.88925 | 36985 ft | 506 kts | 148° |
| 2026-05-07 14:12 | 42.90679 | 11.94831 | 36991 ft | 506 kts | 148° |
| 2026-05-07 14:13 | 42.85171 | 12.00754 | 36985 ft | 506 kts | 148° |
| 2026-05-07 14:13 | 42.79635 | 12.06692 | 36995 ft | 507 kts | 148° |
| 2026-05-07 14:14 | 42.74056 | 12.12665 | 36997 ft | 507 kts | 149° |
| 2026-05-07 14:14 | 42.68547 | 12.18546 | 36992 ft | 508 kts | 149° |
| 2026-05-07 14:15 | 42.62980 | 12.24476 | 36998 ft | 508 kts | 149° |
| 2026-05-07 14:15 | 42.58130 | 12.29631 | 36998 ft | 508 kts | 149° |
| 2026-05-07 14:16 | 42.52557 | 12.35543 | 36994 ft | 508 kts | 149° |
| 2026-05-07 14:16 | 42.46979 | 12.41445 | 36981 ft | 508 kts | 149° |
| 2026-05-07 14:17 | 42.41617 | 12.47107 | 36971 ft | 508 kts | 149° |
| 2026-05-07 14:17 | 42.36043 | 12.52978 | 36984 ft | 509 kts | 149° |
| 2026-05-07 14:18 | 42.30430 | 12.58875 | 36984 ft | 510 kts | 149° |
| 2026-05-07 14:18 | 42.24775 | 12.64804 | 36979 ft | 511 kts | 150° |
| 2026-05-07 14:19 | 42.19109 | 12.70731 | 36974 ft | 513 kts | 150° |
| 2026-05-07 14:19 | 42.13476 | 12.76609 | 36987 ft | 514 kts | 150° |
| 2026-05-07 14:20 | 42.07708 | 12.82615 | 37001 ft | 515 kts | 150° |
| 2026-05-07 14:20 | 42.02030 | 12.88512 | 36990 ft | 516 kts | 150° |
| 2026-05-07 14:21 | 41.96322 | 12.94430 | 36989 ft | 516 kts | 150° |
| 2026-05-07 14:21 | 41.90680 | 13.00264 | 36972 ft | 517 kts | 151° |
| 2026-05-07 14:22 | 41.84872 | 13.06257 | 36978 ft | 518 kts | 151° |
| 2026-05-07 14:22 | 41.79115 | 13.12179 | 36972 ft | 519 kts | 151° |
| 2026-05-07 14:23 | 41.73459 | 13.17985 | 36974 ft | 521 kts | 152° |
| 2026-05-07 14:23 | 41.67595 | 13.23991 | 36998 ft | 522 kts | 152° |
| 2026-05-07 14:24 | 41.61786 | 13.29928 | 36999 ft | 523 kts | 152° |
| 2026-05-07 14:24 | 41.55997 | 13.35831 | 36999 ft | 524 kts | 152° |
| 2026-05-07 14:25 | 41.50222 | 13.41706 | 36972 ft | 524 kts | 152° |
| 2026-05-07 14:25 | 41.44407 | 13.47609 | 36980 ft | 524 kts | 152° |
| 2026-05-07 14:26 | 41.38618 | 13.53469 | 36955 ft | 526 kts | 152° |
| 2026-05-07 14:26 | 41.33728 | 13.58409 | 36950 ft | 527 kts | 153° |
| 2026-05-07 14:27 | 41.27861 | 13.64322 | 36950 ft | 528 kts | 153° |
| 2026-05-07 14:27 | 41.21981 | 13.70238 | 36956 ft | 530 kts | 153° |
| 2026-05-07 14:28 | 41.16201 | 13.76040 | 36969 ft | 531 kts | 153° |
| 2026-05-07 14:28 | 41.10286 | 13.81963 | 36951 ft | 532 kts | 153° |
| 2026-05-07 14:29 | 41.04355 | 13.87889 | 36943 ft | 533 kts | 153° |
| 2026-05-07 14:29 | 40.98454 | 13.93772 | 36944 ft | 534 kts | 153° |
| 2026-05-07 14:30 | 40.92473 | 13.99720 | 36947 ft | 535 kts | 154° |
| 2026-05-07 14:30 | 40.86517 | 14.05629 | 36946 ft | 535 kts | 154° |
| 2026-05-07 14:31 | 40.80550 | 14.11535 | 36951 ft | 535 kts | 154° |
| 2026-05-07 14:31 | 40.74603 | 14.17409 | 36948 ft | 535 kts | 154° |
| 2026-05-07 14:32 | 40.68629 | 14.23297 | 36947 ft | 535 kts | 154° |
| 2026-05-07 14:32 | 40.62692 | 14.29138 | 36949 ft | 535 kts | 154° |
| 2026-05-07 14:33 | 40.56768 | 14.34978 | 36943 ft | 537 kts | 153° |
| 2026-05-07 14:33 | 40.51033 | 14.41581 | 36948 ft | 544 kts | 148° |
| 2026-05-07 14:34 | 40.45404 | 14.48232 | 36941 ft | 543 kts | 149° |
| 2026-05-07 14:34 | 40.39725 | 14.54785 | 36938 ft | 542 kts | 150° |
| 2026-05-07 14:35 | 40.34064 | 14.61259 | 36937 ft | 541 kts | 150° |
| 2026-05-07 14:35 | 40.28370 | 14.67753 | 36935 ft | 541 kts | 150° |
| 2026-05-07 14:36 | 40.22702 | 14.74205 | 36940 ft | 541 kts | 150° |
| 2026-05-07 14:36 | 40.17034 | 14.80642 | 36941 ft | 541 kts | 150° |
| 2026-05-07 14:37 | 40.11588 | 14.87577 | 36937 ft | 551 kts | 143° |
| 2026-05-07 14:37 | 40.03741 | 14.98598 | 36931 ft | 551 kts | 143° |
| 2026-05-07 14:38 | 39.98515 | 15.05899 | 36932 ft | 551 kts | 143° |
| 2026-05-07 14:38 | 39.93281 | 15.13190 | 36926 ft | 551 kts | 143° |
| 2026-05-07 14:39 | 39.87982 | 15.20548 | 36934 ft | 551 kts | 143° |
| 2026-05-07 14:39 | 39.82628 | 15.27961 | 36929 ft | 551 kts | 143° |
| 2026-05-07 14:40 | 39.77397 | 15.35186 | 36930 ft | 551 kts | 143° |
| 2026-05-07 14:40 | 39.72060 | 15.42540 | 36932 ft | 551 kts | 142° |
| 2026-05-07 14:41 | 39.66796 | 15.49777 | 36930 ft | 551 kts | 142° |
| 2026-05-07 14:41 | 39.61515 | 15.57019 | 36938 ft | 551 kts | 142° |
| 2026-05-07 14:42 | 39.56264 | 15.64204 | 36940 ft | 552 kts | 142° |
| 2026-05-07 14:42 | 39.50987 | 15.71407 | 36938 ft | 552 kts | 142° |
| 2026-05-07 14:43 | 39.45696 | 15.78614 | 36942 ft | 551 kts | 142° |
| 2026-05-07 14:43 | 39.41302 | 15.84584 | 36936 ft | 551 kts | 142° |
| 2026-05-07 14:44 | 39.35992 | 15.91785 | 36938 ft | 551 kts | 142° |
| 2026-05-07 14:44 | 39.30729 | 15.98904 | 36950 ft | 551 kts | 141° |
| 2026-05-07 14:45 | 39.25373 | 16.06133 | 36946 ft | 551 kts | 141° |
| 2026-05-07 14:45 | 39.20071 | 16.13270 | 36954 ft | 551 kts | 141° |
| 2026-05-07 14:46 | 39.14791 | 16.20362 | 36970 ft | 551 kts | 141° |
| 2026-05-07 14:46 | 39.09501 | 16.27453 | 36960 ft | 550 kts | 141° |
| 2026-05-07 14:47 | 39.04178 | 16.34570 | 36960 ft | 549 kts | 141° |
| 2026-05-07 14:47 | 38.98881 | 16.41637 | 36955 ft | 549 kts | 141° |
| 2026-05-07 14:48 | 38.93563 | 16.48715 | 36961 ft | 549 kts | 141° |
| 2026-05-07 14:48 | 38.88300 | 16.55702 | 36976 ft | 550 kts | 141° |
| 2026-05-07 14:49 | 38.83000 | 16.62723 | 36995 ft | 552 kts | 141° |
| 2026-05-07 14:49 | 38.77647 | 16.69799 | 37014 ft | 552 kts | 141° |
| 2026-05-07 14:50 | 38.72276 | 16.76883 | 37022 ft | 553 kts | 141° |
| 2026-05-07 14:50 | 38.66914 | 16.83939 | 37018 ft | 553 kts | 140° |
| 2026-05-07 14:51 | 38.61562 | 16.90965 | 37011 ft | 553 kts | 140° |
| 2026-05-07 14:51 | 38.56176 | 16.98019 | 37005 ft | 553 kts | 140° |
| 2026-05-07 14:52 | 38.50795 | 17.05052 | 37001 ft | 553 kts | 140° |
| 2026-05-07 14:52 | 38.45443 | 17.12030 | 36994 ft | 553 kts | 140° |
| 2026-05-07 14:53 | 38.40051 | 17.19043 | 36991 ft | 553 kts | 140° |
| 2026-05-07 14:53 | 38.34650 | 17.26053 | 36985 ft | 553 kts | 140° |
| 2026-05-07 14:54 | 38.29242 | 17.33057 | 36983 ft | 554 kts | 140° |
| 2026-05-07 14:54 | 38.23867 | 17.40002 | 36979 ft | 554 kts | 140° |
| 2026-05-07 14:55 | 38.18452 | 17.46982 | 36982 ft | 555 kts | 140° |
| 2026-05-07 14:55 | 38.13011 | 17.53981 | 36991 ft | 556 kts | 140° |
| 2026-05-07 14:56 | 38.07566 | 17.60969 | 37002 ft | 556 kts | 140° |
| 2026-05-07 14:56 | 38.02105 | 17.67962 | 36990 ft | 557 kts | 140° |
| 2026-05-07 14:57 | 37.96675 | 17.74900 | 36996 ft | 557 kts | 140° |
| 2026-05-07 14:57 | 37.91196 | 17.81884 | 36995 ft | 557 kts | 140° |
| 2026-05-07 14:58 | 37.85728 | 17.88839 | 36987 ft | 557 kts | 140° |
| 2026-05-07 14:58 | 37.80246 | 17.95796 | 36990 ft | 557 kts | 140° |
| 2026-05-07 14:59 | 37.74799 | 18.02693 | 36982 ft | 557 kts | 140° |
| 2026-05-07 14:59 | 37.69307 | 18.09632 | 36996 ft | 557 kts | 140° |
| 2026-05-07 15:00 | 37.63822 | 18.16548 | 36990 ft | 557 kts | 140° |
| 2026-05-07 15:00 | 37.58339 | 18.23445 | 36998 ft | 556 kts | 140° |